createdAt,value
2018-03-18T00:00:07.087Z,39.10
2018-03-18T00:01:07.113Z,38.40
2018-03-18T00:02:07.138Z,38.70
2018-03-18T00:03:07.162Z,38.00
2018-03-18T00:04:07.187Z,36.60
2018-03-18T00:05:07.212Z,37.90
2018-03-18T00:06:07.237Z,39.30
2018-03-18T00:07:07.262Z,38.90
2018-03-18T00:08:07.287Z,35.70
2018-03-18T00:09:07.320Z,37.30
2018-03-18T00:10:07.336Z,35.10
2018-03-18T00:11:07.361Z,36.30
2018-03-18T00:12:07.388Z,36.00
2018-03-18T00:13:07.411Z,37.50
2018-03-18T00:14:07.436Z,37.60
2018-03-18T00:15:07.460Z,37.60
2018-03-18T00:16:07.486Z,38.20
2018-03-18T00:17:07.510Z,38.00
2018-03-18T00:18:07.535Z,39.70
2018-03-18T00:19:07.559Z,39.00
2018-03-18T00:20:07.590Z,37.30
2018-03-18T00:21:07.610Z,38.10
2018-03-18T00:22:07.635Z,37.90
2018-03-18T00:23:07.660Z,37.90
2018-03-18T00:24:07.684Z,39.00
2018-03-18T00:25:07.709Z,38.90
2018-03-18T00:26:07.734Z,40.00
2018-03-18T00:27:07.762Z,39.00
2018-03-18T00:28:07.783Z,40.30
2018-03-18T00:29:07.808Z,39.70
2018-03-18T00:30:07.832Z,40.10
2018-03-18T00:31:07.859Z,39.60
2018-03-18T00:32:07.884Z,39.20
2018-03-18T00:33:07.908Z,39.10
2018-03-18T00:34:07.933Z,35.20
2018-03-18T00:35:07.958Z,33.70
2018-03-18T00:36:07.983Z,33.50
2018-03-18T00:37:08.008Z,35.30
2018-03-18T00:38:08.033Z,34.60
2018-03-18T00:39:08.058Z,35.00
2018-03-18T00:40:08.085Z,34.60
2018-03-18T00:41:08.115Z,35.10
2018-03-18T00:42:08.132Z,33.70
2018-03-18T00:43:08.158Z,34.40
2018-03-18T00:44:08.180Z,33.30
2018-03-18T00:45:08.207Z,33.50
2018-03-18T00:46:08.235Z,34.20
2018-03-18T00:47:08.260Z,33.00
2018-03-18T00:48:08.283Z,32.50
2018-03-18T00:49:08.306Z,33.60
2018-03-18T00:50:08.331Z,35.50
2018-03-18T00:51:08.366Z,36.50
2018-03-18T00:52:08.380Z,35.70
2018-03-18T00:53:08.405Z,35.80
2018-03-18T00:54:08.444Z,34.80
2018-03-18T00:55:08.456Z,35.40
2018-03-18T00:56:08.480Z,35.10
2018-03-18T00:57:08.504Z,35.70
2018-03-18T00:58:08.528Z,34.50
2018-03-18T00:59:08.554Z,37.30
2018-03-18T01:00:08.578Z,37.80
2018-03-18T01:01:08.604Z,36.30
2018-03-18T01:02:08.629Z,36.30
2018-03-18T01:03:08.654Z,39.10
2018-03-18T01:04:08.677Z,39.40
2018-03-18T01:05:08.701Z,37.20
2018-03-18T01:06:08.728Z,34.80
2018-03-18T01:07:08.753Z,36.90
2018-03-18T01:08:08.778Z,38.50
2018-03-18T01:09:08.802Z,36.60
2018-03-18T01:10:08.827Z,36.90
2018-03-18T01:11:08.852Z,38.10
2018-03-18T01:12:08.875Z,38.70
2018-03-18T01:13:08.901Z,36.20
2018-03-18T01:14:08.925Z,35.90
2018-03-18T01:15:08.950Z,34.20
2018-03-18T01:16:08.976Z,33.20
2018-03-18T01:17:09.000Z,34.50
2018-03-18T01:18:09.025Z,33.50
2018-03-18T01:19:09.050Z,35.90
2018-03-18T01:20:09.074Z,33.80
2018-03-18T01:21:09.097Z,33.60
2018-03-18T01:22:09.122Z,31.60
2018-03-18T01:23:09.148Z,32.70
2018-03-18T01:24:09.173Z,35.20
2018-03-18T01:25:09.203Z,36.40
2018-03-18T01:26:09.225Z,35.60
2018-03-18T01:27:09.249Z,34.90
2018-03-18T01:28:09.271Z,34.80
2018-03-18T01:29:09.297Z,34.60
2018-03-18T01:30:09.321Z,32.70
2018-03-18T01:31:09.347Z,32.50
2018-03-18T01:32:09.372Z,31.80
2018-03-18T01:33:09.396Z,32.90
2018-03-18T01:34:09.422Z,33.00
2018-03-18T01:35:09.445Z,34.40
2018-03-18T01:36:09.470Z,33.20
2018-03-18T01:37:09.494Z,32.30
2018-03-18T01:38:09.520Z,33.90
2018-03-18T01:39:09.545Z,32.50
2018-03-18T01:40:09.570Z,32.80
2018-03-18T01:41:09.594Z,32.60
2018-03-18T01:42:09.618Z,33.30
2018-03-18T01:43:09.704Z,33.70
2018-03-18T01:44:09.668Z,31.30
2018-03-18T01:45:09.694Z,33.70
2018-03-18T01:46:09.719Z,34.20
2018-03-18T01:47:09.744Z,32.30
2018-03-18T01:48:09.767Z,31.40
2018-03-18T01:49:09.791Z,33.60
2018-03-18T01:50:09.817Z,30.60
2018-03-18T01:51:09.842Z,32.00
2018-03-18T01:52:09.866Z,33.20
2018-03-18T01:53:09.891Z,32.00
2018-03-18T01:54:09.918Z,32.90
2018-03-18T01:55:09.941Z,33.20
2018-03-18T01:56:09.973Z,33.80
2018-03-18T01:57:09.999Z,32.50
2018-03-18T01:58:10.015Z,33.00
2018-03-18T01:59:10.040Z,32.10
2018-03-18T02:00:10.066Z,31.30
2018-03-18T02:01:10.089Z,32.00
2018-03-18T02:02:10.116Z,32.30
2018-03-18T02:03:10.141Z,31.10
2018-03-18T02:04:10.166Z,32.20
2018-03-18T02:05:10.188Z,32.80
2018-03-18T02:06:10.212Z,33.00
2018-03-18T02:07:10.239Z,32.80
2018-03-18T02:08:10.262Z,33.40
2018-03-18T02:09:10.288Z,31.90
2018-03-18T02:10:10.314Z,33.80
2018-03-18T02:11:10.338Z,32.50
2018-03-18T02:12:10.364Z,32.70
2018-03-18T02:13:10.388Z,33.30
2018-03-18T02:14:10.412Z,35.70
2018-03-18T02:15:10.435Z,33.10
2018-03-18T02:16:10.461Z,34.10
2018-03-18T02:17:10.486Z,32.70
2018-03-18T02:18:10.510Z,33.60
2018-03-18T02:19:10.535Z,34.20
2018-03-18T02:20:10.559Z,34.70
2018-03-18T02:21:10.583Z,36.20
2018-03-18T02:22:10.612Z,38.40
2018-03-18T02:23:10.633Z,37.30
2018-03-18T02:24:10.658Z,37.10
2018-03-18T02:25:10.683Z,37.10
2018-03-18T02:26:10.708Z,37.70
2018-03-18T02:27:10.733Z,36.30
2018-03-18T02:28:10.757Z,37.30
2018-03-18T02:29:10.781Z,37.10
2018-03-18T02:30:10.807Z,36.00
2018-03-18T02:31:10.833Z,37.20
2018-03-18T02:32:10.856Z,37.10
2018-03-18T02:33:10.880Z,38.90
2018-03-18T02:34:10.904Z,41.00
2018-03-18T02:35:10.937Z,43.60
2018-03-18T02:36:10.956Z,41.10
2018-03-18T02:37:10.981Z,41.10
2018-03-18T02:38:11.007Z,39.60
2018-03-18T02:39:11.032Z,40.10
2018-03-18T02:40:11.055Z,39.20
2018-03-18T02:41:11.081Z,39.40
2018-03-18T02:42:11.103Z,40.20
2018-03-18T02:43:11.129Z,39.20
2018-03-18T02:44:11.155Z,39.70
2018-03-18T02:45:11.178Z,38.30
2018-03-18T02:46:11.204Z,37.80
2018-03-18T02:47:11.228Z,41.10
2018-03-18T02:48:11.253Z,42.30
2018-03-18T02:49:11.278Z,42.10
2018-03-18T02:50:11.318Z,40.00
2018-03-18T02:51:11.329Z,41.30
2018-03-18T02:52:11.352Z,40.10
2018-03-18T02:53:11.377Z,39.80
2018-03-18T02:54:11.402Z,37.60
2018-03-18T02:55:11.426Z,37.10
2018-03-18T02:56:11.450Z,40.50
2018-03-18T02:57:11.475Z,40.90
2018-03-18T02:58:11.499Z,38.20
2018-03-18T02:59:11.526Z,37.20
2018-03-18T03:00:11.549Z,35.60
2018-03-18T03:01:11.574Z,37.70
2018-03-18T03:02:11.605Z,36.30
2018-03-18T03:03:11.622Z,36.60
2018-03-18T03:04:11.647Z,37.30
2018-03-18T03:05:11.671Z,37.80
2018-03-18T03:06:11.696Z,38.60
2018-03-18T03:07:11.720Z,37.70
2018-03-18T03:08:11.747Z,37.40
2018-03-18T03:09:11.770Z,35.20
2018-03-18T03:10:11.794Z,35.80
2018-03-18T03:11:11.818Z,35.80
2018-03-18T03:12:11.842Z,35.80
2018-03-18T03:13:11.867Z,37.00
2018-03-18T03:14:11.893Z,36.70
2018-03-18T03:15:11.917Z,39.10
2018-03-18T03:16:11.941Z,40.60
2018-03-18T03:17:11.966Z,37.10
2018-03-18T03:18:11.990Z,34.80
2018-03-18T03:19:12.015Z,36.80
2018-03-18T03:20:12.038Z,38.00
2018-03-18T03:21:12.066Z,37.30
2018-03-18T03:22:12.087Z,35.40
2018-03-18T03:23:12.112Z,36.20
2018-03-18T03:24:12.135Z,37.90
2018-03-18T03:25:12.168Z,38.00
2018-03-18T03:26:12.185Z,36.40
2018-03-18T03:27:12.210Z,36.30
2018-03-18T03:28:12.233Z,34.80
2018-03-18T03:29:12.259Z,34.40
2018-03-18T03:30:12.284Z,32.00
2018-03-18T03:31:12.318Z,33.70
2018-03-18T03:32:12.332Z,32.40
2018-03-18T03:33:12.357Z,34.20
2018-03-18T03:34:12.389Z,35.50
2018-03-18T03:35:12.405Z,34.80
2018-03-18T03:36:12.428Z,33.10
2018-03-18T03:37:12.453Z,33.10
2018-03-18T03:38:12.485Z,34.10
2018-03-18T03:39:12.502Z,34.60
2018-03-18T03:40:12.526Z,34.40
2018-03-18T03:41:12.549Z,36.20
2018-03-18T03:42:12.574Z,36.90
2018-03-18T03:43:12.611Z,36.50
2018-03-18T03:44:12.622Z,35.80
2018-03-18T03:45:12.647Z,37.00
2018-03-18T03:46:12.672Z,37.70
2018-03-18T03:47:12.700Z,36.80
2018-03-18T03:48:12.720Z,38.20
2018-03-18T03:49:12.744Z,36.00
2018-03-18T03:50:12.769Z,37.30
2018-03-18T03:51:12.795Z,36.00
2018-03-18T03:52:12.816Z,34.80
2018-03-18T03:53:12.841Z,34.40
2018-03-18T03:54:12.865Z,33.60
2018-03-18T03:55:12.890Z,34.00
2018-03-18T03:56:12.914Z,33.20
2018-03-18T03:57:12.939Z,33.50
2018-03-18T03:58:12.964Z,33.30
2018-03-18T03:59:12.989Z,32.90
2018-03-18T04:00:13.011Z,33.90
2018-03-18T04:01:13.037Z,33.00
2018-03-18T04:02:13.061Z,33.30
2018-03-18T04:03:13.085Z,34.40
2018-03-18T04:04:13.109Z,34.40
2018-03-18T04:05:13.133Z,32.90
2018-03-18T04:06:13.158Z,33.20
2018-03-18T04:07:13.182Z,33.70
2018-03-18T04:08:13.209Z,34.30
2018-03-18T04:09:13.230Z,35.10
2018-03-18T04:10:13.255Z,35.40
2018-03-18T04:11:13.281Z,34.50
2018-03-18T04:12:13.304Z,33.60
2018-03-18T04:13:13.327Z,33.00
2018-03-18T04:14:13.351Z,32.40
2018-03-18T04:15:13.378Z,32.30
2018-03-18T04:16:13.401Z,33.20
2018-03-18T04:17:13.428Z,34.90
2018-03-18T04:18:13.453Z,34.00
2018-03-18T04:19:13.475Z,37.40
2018-03-18T04:20:13.498Z,36.50
2018-03-18T04:21:13.523Z,34.10
2018-03-18T04:22:13.547Z,32.20
2018-03-18T04:23:13.573Z,34.00
2018-03-18T04:24:13.598Z,33.10
2018-03-18T04:25:13.619Z,33.90
2018-03-18T04:26:13.645Z,33.60
2018-03-18T04:27:13.669Z,32.50
2018-03-18T04:28:13.697Z,30.80
2018-03-18T04:29:13.718Z,31.30
2018-03-18T04:30:13.742Z,33.30
2018-03-18T04:31:13.766Z,31.60
2018-03-18T04:32:13.790Z,33.60
2018-03-18T04:33:13.815Z,33.60
2018-03-18T04:34:13.840Z,33.60
2018-03-18T04:35:13.865Z,35.40
2018-03-18T04:36:13.888Z,35.60
2018-03-18T04:37:13.913Z,34.70
2018-03-18T04:38:13.936Z,33.50
2018-03-18T04:39:13.962Z,33.90
2018-03-18T04:40:13.985Z,34.10
2018-03-18T04:41:14.010Z,33.00
2018-03-18T04:42:14.036Z,33.70
2018-03-18T04:43:14.060Z,32.90
2018-03-18T04:44:14.083Z,31.60
2018-03-18T04:45:14.108Z,32.20
2018-03-18T04:46:14.131Z,31.60
2018-03-18T04:47:14.157Z,32.80
2018-03-18T04:48:14.182Z,34.40
2018-03-18T04:49:14.206Z,35.40
2018-03-18T04:50:14.230Z,36.90
2018-03-18T04:51:14.256Z,36.90
2018-03-18T04:52:14.341Z,35.70
2018-03-18T04:53:14.303Z,35.60
2018-03-18T04:54:14.327Z,35.40
2018-03-18T04:55:14.353Z,34.70
2018-03-18T04:56:14.378Z,33.40
2018-03-18T04:57:14.402Z,32.90
2018-03-18T04:58:14.425Z,33.10
2018-03-18T04:59:14.455Z,32.90
2018-03-18T05:00:14.474Z,34.50
2018-03-18T05:01:14.500Z,33.60
2018-03-18T05:02:14.523Z,32.20
2018-03-18T05:03:14.551Z,31.80
2018-03-18T05:04:14.571Z,33.90
2018-03-18T05:05:14.596Z,33.40
2018-03-18T05:06:14.624Z,34.20
2018-03-18T05:07:14.645Z,31.70
2018-03-18T05:08:14.668Z,30.40
2018-03-18T05:09:14.691Z,34.40
2018-03-18T05:10:14.717Z,32.50
2018-03-18T05:11:14.745Z,32.30
2018-03-18T05:12:14.765Z,31.50
2018-03-18T05:13:14.789Z,34.80
2018-03-18T05:14:14.814Z,33.10
2018-03-18T05:15:14.839Z,32.80
2018-03-18T05:16:14.862Z,32.00
2018-03-18T05:17:14.886Z,32.70
2018-03-18T05:18:14.911Z,31.50
2018-03-18T05:19:14.935Z,32.40
2018-03-18T05:20:14.957Z,30.70
2018-03-18T05:21:14.982Z,30.70
2018-03-18T05:22:15.007Z,32.00
2018-03-18T05:23:15.038Z,32.30
2018-03-18T05:24:15.054Z,32.00
2018-03-18T05:25:15.080Z,30.30
2018-03-18T05:26:15.103Z,31.30
2018-03-18T05:27:15.130Z,33.10
2018-03-18T05:28:15.151Z,33.40
2018-03-18T05:29:15.175Z,34.00
2018-03-18T05:30:15.200Z,31.90
2018-03-18T05:31:15.225Z,31.90
2018-03-18T05:32:15.248Z,31.90
2018-03-18T05:33:15.272Z,31.50
2018-03-18T05:34:15.302Z,30.00
2018-03-18T05:35:15.322Z,30.70
2018-03-18T05:36:15.345Z,31.70
2018-03-18T05:37:15.369Z,34.70
2018-03-18T05:38:15.394Z,35.50
2018-03-18T05:39:15.421Z,32.60
2018-03-18T05:40:15.441Z,32.60
2018-03-18T05:41:15.466Z,32.50
2018-03-18T05:42:15.491Z,32.10
2018-03-18T05:43:15.516Z,33.10
2018-03-18T05:44:15.538Z,33.80
2018-03-18T05:45:15.562Z,33.00
2018-03-18T05:46:15.588Z,32.00
2018-03-18T05:47:15.613Z,33.20
2018-03-18T05:48:15.636Z,33.30
2018-03-18T05:49:15.661Z,35.10
2018-03-18T05:50:15.685Z,34.10
2018-03-18T05:51:15.710Z,31.10
2018-03-18T05:52:15.733Z,29.30
2018-03-18T05:53:15.758Z,30.00
2018-03-18T05:54:15.782Z,29.60
2018-03-18T05:55:15.806Z,31.80
2018-03-18T05:56:15.839Z,30.60
2018-03-18T05:57:15.855Z,32.00
2018-03-18T05:58:15.887Z,30.80
2018-03-18T05:59:15.904Z,30.20
2018-03-18T06:00:15.927Z,29.70
2018-03-18T06:01:15.985Z,31.60
2018-03-18T06:02:15.977Z,29.40
2018-03-18T06:03:16.001Z,32.80
2018-03-18T06:04:16.024Z,34.60
2018-03-18T06:05:16.049Z,33.50
2018-03-18T06:06:16.073Z,32.30
2018-03-18T06:07:16.097Z,30.90
2018-03-18T06:08:16.121Z,32.10
2018-03-18T06:09:16.146Z,32.40
2018-03-18T06:10:16.171Z,31.20
2018-03-18T06:11:16.218Z,32.60
2018-03-18T06:12:16.218Z,32.10
2018-03-18T06:13:16.243Z,31.40
2018-03-18T06:14:16.268Z,31.80
2018-03-18T06:15:16.298Z,31.60
2018-03-18T06:16:16.315Z,30.50
2018-03-18T06:17:16.339Z,31.10
2018-03-18T06:18:16.363Z,32.20
2018-03-18T06:19:16.389Z,33.90
2018-03-18T06:20:16.413Z,32.10
2018-03-18T06:21:16.439Z,32.10
2018-03-18T06:22:16.459Z,32.50
2018-03-18T06:23:16.486Z,32.60
2018-03-18T06:24:16.507Z,32.10
2018-03-18T06:25:16.532Z,33.10
2018-03-18T06:26:16.558Z,34.70
2018-03-18T06:27:16.584Z,34.20
2018-03-18T06:28:16.607Z,35.20
2018-03-18T06:29:16.630Z,33.90
2018-03-18T06:30:16.655Z,33.10
2018-03-18T06:31:16.678Z,34.00
2018-03-18T06:32:16.702Z,33.60
2018-03-18T06:33:16.728Z,31.20
2018-03-18T06:34:16.751Z,32.00
2018-03-18T06:35:16.779Z,31.90
2018-03-18T06:36:16.803Z,33.00
2018-03-18T06:37:16.824Z,32.20
2018-03-18T06:38:16.849Z,30.90
2018-03-18T06:39:16.876Z,33.20
2018-03-18T06:40:16.903Z,32.70
2018-03-18T06:41:16.921Z,35.30
2018-03-18T06:42:16.947Z,34.30
2018-03-18T06:43:16.972Z,35.80
2018-03-18T06:44:16.996Z,35.60
2018-03-18T06:45:17.021Z,34.10
2018-03-18T06:46:17.045Z,34.40
2018-03-18T06:47:17.071Z,36.30
2018-03-18T06:48:17.094Z,37.00
2018-03-18T06:49:17.120Z,36.50
2018-03-18T06:50:17.144Z,37.10
2018-03-18T06:51:17.168Z,43.60
2018-03-18T06:52:17.192Z,44.40
2018-03-18T06:53:17.218Z,40.40
2018-03-18T06:54:17.243Z,38.80
2018-03-18T06:55:17.267Z,38.00
2018-03-18T06:56:17.295Z,36.50
2018-03-18T06:57:17.317Z,39.30
2018-03-18T06:58:17.341Z,40.40
2018-03-18T06:59:17.367Z,41.00
2018-03-18T07:00:17.391Z,40.50
2018-03-18T07:01:17.415Z,42.80
2018-03-18T07:02:17.441Z,47.70
2018-03-18T07:03:17.466Z,47.00
2018-03-18T07:04:17.491Z,48.70
2018-03-18T07:05:17.519Z,44.00
2018-03-18T07:06:17.540Z,39.80
2018-03-18T07:07:17.567Z,40.20
2018-03-18T07:08:17.589Z,41.40
2018-03-18T07:09:17.614Z,40.20
2018-03-18T07:10:17.640Z,38.30
2018-03-18T07:11:17.665Z,39.30
2018-03-18T07:12:17.689Z,40.70
2018-03-18T07:13:17.714Z,40.30
2018-03-18T07:14:17.740Z,37.80
2018-03-18T07:15:17.766Z,39.70
2018-03-18T07:16:17.790Z,38.00
2018-03-18T07:17:17.815Z,39.50
2018-03-18T07:18:17.840Z,37.30
2018-03-18T07:19:17.865Z,37.20
2018-03-18T07:20:17.889Z,37.40
2018-03-18T07:21:17.916Z,37.10
2018-03-18T07:22:17.941Z,38.90
2018-03-18T07:23:17.966Z,45.00
2018-03-18T07:24:17.992Z,40.00
2018-03-18T07:25:18.018Z,46.80
2018-03-18T07:26:18.042Z,45.50
2018-03-18T07:27:18.065Z,39.70
2018-03-18T07:28:18.091Z,35.30
2018-03-18T07:29:18.117Z,35.40
2018-03-18T07:30:18.142Z,35.80
2018-03-18T07:31:18.168Z,34.90
2018-03-18T07:32:18.193Z,34.60
2018-03-18T07:33:18.217Z,36.30
2018-03-18T07:34:18.245Z,35.00
2018-03-18T07:35:18.271Z,36.40
2018-03-18T07:36:18.293Z,36.60
2018-03-18T07:37:18.320Z,35.00
2018-03-18T07:38:18.349Z,34.20
2018-03-18T07:39:18.440Z,35.20
2018-03-18T07:40:18.396Z,36.00
2018-03-18T07:41:18.421Z,35.80
2018-03-18T07:42:18.447Z,36.30
2018-03-18T07:43:18.471Z,34.70
2018-03-18T07:44:18.496Z,35.40
2018-03-18T07:45:18.522Z,37.30
2018-03-18T07:46:18.547Z,38.70
2018-03-18T07:47:18.598Z,35.40
2018-03-18T07:48:18.596Z,37.80
2018-03-18T07:49:18.623Z,38.70
2018-03-18T07:50:18.649Z,40.70
2018-03-18T07:51:18.674Z,36.90
2018-03-18T07:52:18.699Z,42.30
2018-03-18T07:53:18.728Z,41.60
2018-03-18T07:54:18.751Z,36.60
2018-03-18T07:55:18.779Z,35.80
2018-03-18T07:56:18.815Z,33.40
2018-03-18T07:57:18.827Z,35.40
2018-03-18T07:58:18.853Z,38.20
2018-03-18T07:59:18.879Z,38.30
2018-03-18T08:00:18.905Z,40.80
2018-03-18T08:01:18.931Z,38.90
2018-03-18T08:02:18.955Z,36.10
2018-03-18T08:03:18.982Z,35.80
2018-03-18T08:04:19.006Z,39.00
2018-03-18T08:05:19.034Z,39.30
2018-03-18T08:06:19.081Z,39.70
2018-03-18T08:07:19.085Z,39.20
2018-03-18T08:08:19.117Z,37.70
2018-03-18T08:09:19.135Z,36.30
2018-03-18T08:10:19.162Z,38.40
2018-03-18T08:11:19.188Z,37.60
2018-03-18T08:12:19.213Z,37.50
2018-03-18T08:13:19.238Z,35.80
2018-03-18T08:14:19.265Z,35.20
2018-03-18T08:15:19.292Z,33.60
2018-03-18T08:16:19.316Z,33.40
2018-03-18T08:17:19.343Z,42.40
2018-03-18T08:18:19.369Z,41.40
2018-03-18T08:19:19.427Z,37.90
2018-03-18T08:20:19.448Z,36.30
2018-03-18T08:21:19.448Z,35.70
2018-03-18T08:22:19.474Z,37.00
2018-03-18T08:23:19.592Z,39.20
2018-03-18T08:24:19.538Z,41.90
2018-03-18T08:25:19.574Z,39.20
2018-03-18T08:26:19.699Z,39.50
2018-03-18T08:27:19.605Z,37.80
2018-03-18T08:28:19.650Z,31.40
2018-03-18T08:29:19.658Z,30.40
2018-03-18T08:30:19.700Z,31.50
2018-03-18T08:31:19.710Z,35.00
2018-03-18T08:32:19.735Z,41.70
2018-03-18T08:33:19.787Z,35.70
2018-03-18T08:34:19.826Z,38.00
2018-03-18T08:35:19.814Z,35.40
2018-03-18T08:36:19.840Z,34.40
2018-03-18T08:37:19.867Z,34.80
2018-03-18T08:38:19.892Z,32.30
2018-03-18T08:39:19.919Z,32.70
2018-03-18T08:40:19.952Z,32.50
2018-03-18T08:41:19.975Z,32.60
2018-03-18T08:42:19.998Z,32.20
2018-03-18T08:43:20.025Z,33.30
2018-03-18T08:44:20.050Z,32.90
2018-03-18T08:45:20.076Z,34.10
2018-03-18T08:46:20.102Z,32.00
2018-03-18T08:47:20.128Z,33.40
2018-03-18T08:48:20.153Z,33.50
2018-03-18T08:49:20.180Z,33.70
2018-03-18T08:50:20.207Z,37.00
2018-03-18T08:51:20.234Z,36.00
2018-03-18T08:52:20.311Z,36.00
2018-03-18T08:53:20.285Z,38.40
2018-03-18T08:54:20.312Z,41.90
2018-03-18T08:55:20.338Z,39.90
2018-03-18T08:56:20.375Z,35.90
2018-03-18T08:57:20.390Z,30.20
2018-03-18T08:58:20.416Z,28.50
2018-03-18T08:59:20.444Z,30.00
2018-03-18T09:00:20.469Z,29.20
2018-03-18T09:01:20.508Z,28.60
2018-03-18T09:02:20.524Z,28.00
2018-03-18T09:03:20.549Z,26.70
2018-03-18T09:04:20.578Z,27.40
2018-03-18T09:05:20.603Z,28.40
2018-03-18T09:06:20.629Z,29.60
2018-03-18T09:07:20.656Z,28.50
2018-03-18T09:08:20.683Z,26.90
2018-03-18T09:09:20.713Z,27.10
2018-03-18T09:10:20.737Z,28.70
2018-03-18T09:11:20.764Z,28.90
2018-03-18T09:12:20.789Z,27.90
2018-03-18T09:13:20.818Z,28.10
2018-03-18T09:14:20.845Z,28.10
2018-03-18T09:15:20.873Z,28.30
2018-03-18T09:16:20.899Z,29.50
2018-03-18T09:17:20.927Z,29.90
2018-03-18T09:18:20.953Z,29.30
2018-03-18T09:19:20.982Z,28.00
2018-03-18T09:20:21.008Z,27.50
2018-03-18T09:21:21.036Z,27.40
2018-03-18T09:22:21.070Z,28.00
2018-03-18T09:23:21.091Z,28.30
2018-03-18T09:24:21.117Z,27.30
2018-03-18T09:25:21.145Z,27.90
2018-03-18T09:26:21.174Z,27.20
2018-03-18T09:27:21.203Z,26.90
2018-03-18T09:28:21.227Z,27.40
2018-03-18T09:29:21.256Z,28.90
2018-03-18T09:30:21.336Z,28.70
2018-03-18T09:31:21.310Z,28.40
2018-03-18T09:32:21.338Z,27.20
2018-03-18T09:33:21.365Z,28.10
2018-03-18T09:34:21.392Z,27.90
2018-03-18T09:35:21.421Z,27.70
2018-03-18T09:36:21.447Z,27.20
2018-03-18T09:37:21.515Z,27.20
2018-03-18T09:38:21.503Z,27.00
2018-03-18T09:39:21.530Z,28.10
2018-03-18T09:40:21.558Z,26.90
2018-03-18T09:41:21.585Z,28.00
2018-03-18T09:42:21.612Z,25.90
2018-03-18T09:43:21.640Z,26.00
2018-03-18T09:44:21.666Z,28.00
2018-03-18T09:45:21.695Z,28.00
2018-03-18T09:46:21.722Z,29.80
2018-03-18T09:47:21.750Z,29.90
2018-03-18T09:48:21.780Z,27.80
2018-03-18T09:49:21.805Z,27.70
2018-03-18T09:50:21.832Z,29.20
2018-03-18T09:51:21.859Z,28.60
2018-03-18T09:52:21.885Z,26.90
2018-03-18T09:53:21.914Z,27.70
2018-03-18T09:54:21.941Z,28.60
2018-03-18T09:55:21.969Z,28.70
2018-03-18T09:56:22.025Z,28.90
2018-03-18T09:57:22.028Z,28.30
2018-03-18T09:58:22.055Z,29.00
2018-03-18T09:59:22.079Z,27.80
2018-03-18T10:00:22.106Z,28.80
2018-03-18T10:01:22.135Z,27.40
2018-03-18T10:02:22.162Z,27.60
2018-03-18T10:03:22.195Z,27.00
2018-03-18T10:04:22.217Z,26.60
2018-03-18T10:05:22.246Z,25.90
2018-03-18T10:06:22.274Z,25.90
2018-03-18T10:07:22.302Z,27.40
2018-03-18T10:08:22.362Z,27.40
2018-03-18T10:09:22.358Z,27.00
2018-03-18T10:10:22.385Z,27.50
2018-03-18T10:11:22.414Z,26.40
2018-03-18T10:12:22.441Z,26.20
2018-03-18T10:13:22.470Z,27.20
2018-03-18T10:14:22.498Z,26.70
2018-03-18T10:15:22.526Z,27.00
2018-03-18T10:16:22.552Z,26.80
2018-03-18T10:17:22.582Z,29.00
2018-03-18T10:18:22.610Z,27.00
2018-03-18T10:19:22.638Z,26.30
2018-03-18T10:20:22.816Z,25.10
2018-03-18T10:21:22.695Z,24.40
2018-03-18T10:22:22.723Z,26.50
2018-03-18T10:23:22.751Z,25.00
2018-03-18T10:24:22.778Z,25.00
2018-03-18T10:25:22.806Z,25.70
2018-03-18T10:26:22.835Z,26.40
2018-03-18T10:27:22.863Z,26.20
2018-03-18T10:28:22.892Z,26.80
2018-03-18T10:29:22.918Z,24.80
2018-03-18T10:30:22.947Z,26.20
2018-03-18T10:31:22.975Z,26.90
2018-03-18T10:32:23.004Z,25.10
2018-03-18T10:33:23.032Z,25.40
2018-03-18T10:34:23.060Z,28.40
2018-03-18T10:35:23.089Z,27.20
2018-03-18T10:36:23.118Z,26.20
2018-03-18T10:37:23.144Z,27.70
2018-03-18T10:38:23.173Z,26.10
2018-03-18T10:39:23.203Z,25.50
2018-03-18T10:40:23.230Z,27.10
2018-03-18T10:41:23.257Z,25.40
2018-03-18T10:42:23.286Z,26.20
2018-03-18T10:43:23.313Z,24.90
2018-03-18T10:44:23.342Z,26.10
2018-03-18T10:45:23.370Z,27.00
2018-03-18T10:46:23.400Z,25.80
2018-03-18T10:47:23.431Z,25.60
2018-03-18T10:48:23.455Z,25.30
2018-03-18T10:49:23.484Z,25.90
2018-03-18T10:50:23.512Z,27.40
2018-03-18T10:51:23.541Z,26.50
2018-03-18T10:52:23.568Z,26.30
2018-03-18T10:53:23.596Z,26.80
2018-03-18T10:54:23.634Z,26.10
2018-03-18T10:55:23.656Z,25.60
2018-03-18T10:56:23.683Z,27.00
2018-03-18T10:57:23.712Z,25.60
2018-03-18T10:58:23.740Z,26.20
2018-03-18T10:59:23.770Z,25.20
2018-03-18T11:00:23.797Z,25.80
2018-03-18T11:01:23.829Z,26.60
2018-03-18T11:02:23.856Z,26.20
2018-03-18T11:03:23.886Z,26.60
2018-03-18T11:04:23.912Z,26.20
2018-03-18T11:05:23.941Z,26.70
2018-03-18T11:06:23.971Z,25.70
2018-03-18T11:07:24.002Z,25.80
2018-03-18T11:08:24.030Z,25.70
2018-03-18T11:09:24.066Z,26.90
2018-03-18T11:10:24.085Z,27.10
2018-03-18T11:11:24.115Z,24.60
2018-03-18T11:12:24.143Z,26.80
2018-03-18T11:13:24.173Z,26.60
2018-03-18T11:14:24.202Z,26.80
2018-03-18T11:15:24.231Z,25.70
2018-03-18T11:16:24.259Z,24.90
2018-03-18T11:17:24.289Z,25.60
2018-03-18T11:18:24.317Z,25.60
2018-03-18T11:19:24.347Z,26.70
2018-03-18T11:20:24.376Z,23.70
2018-03-18T11:21:24.405Z,24.10
2018-03-18T11:22:24.434Z,25.10
2018-03-18T11:23:24.462Z,25.50
2018-03-18T11:24:24.491Z,25.20
2018-03-18T11:25:24.520Z,25.50
2018-03-18T11:26:24.550Z,25.90
2018-03-18T11:27:24.580Z,26.30
2018-03-18T11:28:24.608Z,27.10
2018-03-18T11:29:24.637Z,27.00
2018-03-18T11:30:24.667Z,27.90
2018-03-18T11:31:24.696Z,28.10
2018-03-18T11:32:24.724Z,28.20
2018-03-18T11:33:24.754Z,28.60
2018-03-18T11:34:24.786Z,29.70
2018-03-18T11:35:24.816Z,29.80
2018-03-18T11:36:24.842Z,27.00
2018-03-18T11:37:24.872Z,27.30
2018-03-18T11:38:24.900Z,25.80
2018-03-18T11:39:24.930Z,24.90
2018-03-18T11:40:24.959Z,26.10
2018-03-18T11:41:25.051Z,26.50
2018-03-18T11:42:25.019Z,26.20
2018-03-18T11:43:25.049Z,26.80
2018-03-18T11:44:25.078Z,27.00
2018-03-18T11:45:25.106Z,27.30
2018-03-18T11:46:25.137Z,26.90
2018-03-18T11:47:25.167Z,27.60
2018-03-18T11:48:25.199Z,28.90
2018-03-18T11:49:25.252Z,28.60
2018-03-18T11:50:25.257Z,25.70
2018-03-18T11:51:25.285Z,25.90
2018-03-18T11:52:25.313Z,27.60
2018-03-18T11:53:25.343Z,27.50
2018-03-18T11:54:25.408Z,26.50
2018-03-18T11:55:25.405Z,26.10
2018-03-18T11:56:25.433Z,27.70
2018-03-18T11:57:25.467Z,25.40
2018-03-18T11:58:25.493Z,25.40
2018-03-18T11:59:25.531Z,25.40
2018-03-18T12:00:25.551Z,26.40
2018-03-18T12:01:25.582Z,27.00
2018-03-18T12:02:25.617Z,26.10
2018-03-18T12:03:25.641Z,27.10
2018-03-18T12:04:25.670Z,26.10
2018-03-18T12:05:25.700Z,25.60
2018-03-18T12:06:25.733Z,24.80
2018-03-18T12:07:25.761Z,24.70
2018-03-18T12:08:25.788Z,25.50
2018-03-18T12:09:25.820Z,26.50
2018-03-18T12:10:25.848Z,27.20
2018-03-18T12:11:25.877Z,27.10
2018-03-18T12:12:25.906Z,27.40
2018-03-18T12:13:25.935Z,26.10
2018-03-18T12:14:25.965Z,26.90
2018-03-18T12:15:25.996Z,26.90
2018-03-18T12:16:26.024Z,26.50
2018-03-18T12:17:26.054Z,25.90
2018-03-18T12:18:26.084Z,26.10
2018-03-18T12:19:26.124Z,24.30
2018-03-18T12:20:26.144Z,25.50
2018-03-18T12:21:26.173Z,27.00
2018-03-18T12:22:26.203Z,26.30
2018-03-18T12:23:26.233Z,24.60
2018-03-18T12:24:26.262Z,24.50
2018-03-18T12:25:26.290Z,25.80
2018-03-18T12:26:26.324Z,25.30
2018-03-18T12:27:26.350Z,25.90
2018-03-18T12:28:26.379Z,25.30
2018-03-18T12:29:26.408Z,25.60
2018-03-18T12:30:26.451Z,25.80
2018-03-18T12:31:26.468Z,26.80
2018-03-18T12:32:26.498Z,26.10
2018-03-18T12:33:26.526Z,26.80
2018-03-18T12:34:26.557Z,26.20
2018-03-18T12:35:26.587Z,25.70
2018-03-18T12:36:26.620Z,25.80
2018-03-18T12:37:26.646Z,26.20
2018-03-18T12:38:26.678Z,26.10
2018-03-18T12:39:26.705Z,26.30
2018-03-18T12:40:26.734Z,25.80
2018-03-18T12:41:26.764Z,26.60
2018-03-18T12:42:26.794Z,26.90
2018-03-18T12:43:26.824Z,25.90
2018-03-18T12:44:26.852Z,25.50
2018-03-18T12:45:26.882Z,25.20
2018-03-18T12:46:26.911Z,25.60
2018-03-18T12:47:26.945Z,25.20
2018-03-18T12:48:26.969Z,24.80
2018-03-18T12:49:26.999Z,25.80
2018-03-18T12:50:27.028Z,25.90
2018-03-18T12:51:27.059Z,26.00
2018-03-18T12:52:27.086Z,25.10